sensor_id;sensor_type;location;lat;lon;timestamp;pressure;altitude;pressure_sealevel;temperature;humidity
17855;BME280;9053;53.358;6.382;2022-08-19T00:02:16;101367.91;;;18.04;99.27
17855;BME280;9053;53.358;6.382;2022-08-19T00:04:46;101366.09;;;18.03;99.36
17855;BME280;9053;53.358;6.382;2022-08-19T00:07:22;101374.06;;;18.00;99.47
17855;BME280;9053;53.358;6.382;2022-08-19T00:09:51;101365.19;;;18.00;99.40
17855;BME280;9053;53.358;6.382;2022-08-19T00:12:23;101363.41;;;17.97;99.48
17855;BME280;9053;53.358;6.382;2022-08-19T00:14:52;101369.56;;;17.96;99.46
17855;BME280;9053;53.358;6.382;2022-08-19T00:17:23;101367.81;;;17.95;99.40
17855;BME280;9053;53.358;6.382;2022-08-19T00:19:53;101364.22;;;17.93;99.46
17855;BME280;9053;53.358;6.382;2022-08-19T00:22:25;101364.19;;;17.91;99.56
17855;BME280;9053;53.358;6.382;2022-08-19T00:24:55;101360.63;;;17.91;99.62
17855;BME280;9053;53.358;6.382;2022-08-19T00:27:27;101356.22;;;17.90;99.54
17855;BME280;9053;53.358;6.382;2022-08-19T00:29:57;101359.72;;;17.87;99.59
17855;BME280;9053;53.358;6.382;2022-08-19T00:32:29;101353.47;;;17.85;99.58
17855;BME280;9053;53.358;6.382;2022-08-19T00:35:01;101341.06;;;17.86;99.63
17855;BME280;9053;53.358;6.382;2022-08-19T00:37:33;101341.03;;;17.83;99.59
17855;BME280;9053;53.358;6.382;2022-08-19T00:40:05;101345.44;;;17.81;99.69
17855;BME280;9053;53.358;6.382;2022-08-19T00:42:36;101336.50;;;17.79;99.62
17855;BME280;9053;53.358;6.382;2022-08-19T00:45:11;101331.19;;;17.77;99.77
17855;BME280;9053;53.358;6.382;2022-08-19T00:47:41;101330.25;;;17.73;99.61
17855;BME280;9053;53.358;6.382;2022-08-19T00:50:13;101325.78;;;17.71;99.60
17855;BME280;9053;53.358;6.382;2022-08-19T00:52:49;101329.31;;;17.70;99.61
17855;BME280;9053;53.358;6.382;2022-08-19T00:55:24;101319.53;;;17.67;99.69
17855;BME280;9053;53.358;6.382;2022-08-19T00:57:59;101320.41;;;17.66;99.68
17855;BME280;9053;53.358;6.382;2022-08-19T01:00:30;101324.81;;;17.64;99.77
17855;BME280;9053;53.358;6.382;2022-08-19T01:03:05;101330.13;;;17.63;99.73
17855;BME280;9053;53.358;6.382;2022-08-19T01:05:36;101332.75;;;17.61;99.72
17855;BME280;9053;53.358;6.382;2022-08-19T01:08:10;101331.84;;;17.61;99.89
17855;BME280;9053;53.358;6.382;2022-08-19T01:10:42;101324.78;;;17.60;99.98
17855;BME280;9053;53.358;6.382;2022-08-19T01:13:14;101326.53;;;17.59;99.97
17855;BME280;9053;53.358;6.382;2022-08-19T01:15:50;101323.84;;;17.58;100.00
17855;BME280;9053;53.358;6.382;2022-08-19T01:18:21;101317.59;;;17.56;100.00
17855;BME280;9053;53.358;6.382;2022-08-19T01:20:52;101311.38;;;17.52;100.00
17855;BME280;9053;53.358;6.382;2022-08-19T01:23:27;101312.22;;;17.49;100.00
17855;BME280;9053;53.358;6.382;2022-08-19T01:26:11;101315.75;;;17.47;100.00
17855;BME280;9053;53.358;6.382;2022-08-19T01:28:42;101306.84;;;17.45;100.00
17855;BME280;9053;53.358;6.382;2022-08-19T01:31:15;101306.81;;;17.43;100.00
17855;BME280;9053;53.358;6.382;2022-08-19T01:33:55;101308.59;;;17.43;100.00
17855;BME280;9053;53.358;6.382;2022-08-19T01:36:28;101308.59;;;17.41;100.00
17855;BME280;9053;53.358;6.382;2022-08-19T01:39:04;101305.91;;;17.40;100.00
17855;BME280;9053;53.358;6.382;2022-08-19T01:41:35;101312.09;;;17.39;100.00
17855;BME280;9053;53.358;6.382;2022-08-19T01:44:07;101316.50;;;17.38;100.00
17855;BME280;9053;53.358;6.382;2022-08-19T01:46:47;101318.22;;;17.35;100.00
17855;BME280;9053;53.358;6.382;2022-08-19T01:49:18;101311.09;;;17.34;100.00
17855;BME280;9053;53.358;6.382;2022-08-19T01:51:49;101314.66;;;17.33;100.00
17855;BME280;9053;53.358;6.382;2022-08-19T01:54:23;101307.53;;;17.30;100.00
17855;BME280;9053;53.358;6.382;2022-08-19T01:56:56;101319.03;;;17.29;100.00
17855;BME280;9053;53.358;6.382;2022-08-19T01:59:27;101318.13;;;17.27;100.00
17855;BME280;9053;53.358;6.382;2022-08-19T02:01:57;101317.22;;;17.25;100.00
17855;BME280;9053;53.358;6.382;2022-08-19T02:04:27;101309.19;;;17.23;100.00
17855;BME280;9053;53.358;6.382;2022-08-19T02:06:57;101311.84;;;17.22;100.00
17855;BME280;9053;53.358;6.382;2022-08-19T02:09:30;101312.75;;;17.22;100.00
17855;BME280;9053;53.358;6.382;2022-08-19T02:12:00;101315.38;;;17.21;100.00
17855;BME280;9053;53.358;6.382;2022-08-19T02:14:30;101304.72;;;17.19;100.00
17855;BME280;9053;53.358;6.382;2022-08-19T02:17:00;101308.25;;;17.18;100.00
17855;BME280;9053;53.358;6.382;2022-08-19T02:19:29;101305.59;;;17.17;100.00
17855;BME280;9053;53.358;6.382;2022-08-19T02:22:04;101308.22;;;17.15;100.00
17855;BME280;9053;53.358;6.382;2022-08-19T02:24:37;101310.88;;;17.15;100.00
17855;BME280;9053;53.358;6.382;2022-08-19T02:27:07;101311.72;;;17.13;100.00
17855;BME280;9053;53.358;6.382;2022-08-19T02:29:37;101328.53;;;17.12;100.00
17855;BME280;9053;53.358;6.382;2022-08-19T02:32:07;101328.50;;;17.10;100.00
17855;BME280;9053;53.358;6.382;2022-08-19T02:34:37;101332.91;;;17.08;100.00
17855;BME280;9053;53.358;6.382;2022-08-19T02:37:07;101325.84;;;17.08;100.00
17855;BME280;9053;53.358;6.382;2022-08-19T02:40:04;101324.03;;;17.06;100.00
17855;BME280;9053;53.358;6.382;2022-08-19T02:42:38;101324.88;;;17.03;100.00
17855;BME280;9053;53.358;6.382;2022-08-19T02:45:09;101320.38;;;17.01;100.00
17855;BME280;9053;53.358;6.382;2022-08-19T02:47:39;101330.13;;;17.00;100.00
17855;BME280;9053;53.358;6.382;2022-08-19T02:50:09;101324.81;;;16.99;100.00
17855;BME280;9053;53.358;6.382;2022-08-19T02:52:39;101327.44;;;16.97;100.00
17855;BME280;9053;53.358;6.382;2022-08-19T02:55:11;101317.69;;;16.96;100.00
17855;BME280;9053;53.358;6.382;2022-08-19T02:57:41;101322.09;;;16.96;100.00
17855;BME280;9053;53.358;6.382;2022-08-19T03:00:12;101326.50;;;16.94;100.00
17855;BME280;9053;53.358;6.382;2022-08-19T03:02:42;101332.66;;;16.91;100.00
17855;BME280;9053;53.358;6.382;2022-08-19T03:05:13;101330.84;;;16.90;100.00
17855;BME280;9053;53.358;6.382;2022-08-19T03:07:43;101322.00;;;16.90;100.00
17855;BME280;9053;53.358;6.382;2022-08-19T03:10:15;101325.59;;;16.92;100.00
17855;BME280;9053;53.358;6.382;2022-08-19T03:12:45;101318.47;;;16.91;100.00
17855;BME280;9053;53.358;6.382;2022-08-19T03:15:15;101317.56;;;16.89;100.00
17855;BME280;9053;53.358;6.382;2022-08-19T03:17:45;101320.22;;;16.89;100.00
17855;BME280;9053;53.358;6.382;2022-08-19T03:20:15;101323.75;;;16.87;100.00
17855;BME280;9053;53.358;6.382;2022-08-19T03:22:45;101326.41;;;16.87;100.00
17855;BME280;9053;53.358;6.382;2022-08-19T03:25:17;101324.63;;;16.86;100.00
17855;BME280;9053;53.358;6.382;2022-08-19T03:27:47;101306.88;;;16.85;100.00
17855;BME280;9053;53.358;6.382;2022-08-19T03:30:17;101311.31;;;16.85;100.00
17855;BME280;9053;53.358;6.382;2022-08-19T03:32:49;101306.88;;;16.84;100.00
17855;BME280;9053;53.358;6.382;2022-08-19T03:35:22;101305.06;;;16.83;100.00
17855;BME280;9053;53.358;6.382;2022-08-19T03:37:52;101305.06;;;16.83;100.00
17855;BME280;9053;53.358;6.382;2022-08-19T03:40:26;101303.28;;;16.82;100.00
17855;BME280;9053;53.358;6.382;2022-08-19T03:42:56;101306.81;;;16.81;100.00
17855;BME280;9053;53.358;6.382;2022-08-19T03:45:26;101307.69;;;16.80;100.00
17855;BME280;9053;53.358;6.382;2022-08-19T03:47:56;101313.03;;;16.81;100.00
17855;BME280;9053;53.358;6.382;2022-08-19T03:50:26;101312.16;;;16.81;100.00
17855;BME280;9053;53.358;6.382;2022-08-19T03:52:56;101304.13;;;16.79;100.00
17855;BME280;9053;53.358;6.382;2022-08-19T03:55:28;101310.34;;;16.78;100.00
17855;BME280;9053;53.358;6.382;2022-08-19T03:57:58;101319.13;;;16.77;100.00
17855;BME280;9053;53.358;6.382;2022-08-19T04:00:28;101315.56;;;16.77;100.00
17855;BME280;9053;53.358;6.382;2022-08-19T04:02:59;101323.50;;;16.75;100.00
17855;BME280;9053;53.358;6.382;2022-08-19T04:05:29;101312.00;;;16.73;100.00
17855;BME280;9053;53.358;6.382;2022-08-19T04:07:59;101316.38;;;16.73;100.00
17855;BME280;9053;53.358;6.382;2022-08-19T04:10:35;101311.94;;;16.72;100.00
17855;BME280;9053;53.358;6.382;2022-08-19T04:13:05;101311.06;;;16.71;100.00
17855;BME280;9053;53.358;6.382;2022-08-19T04:15:40;101309.25;;;16.70;100.00
17855;BME280;9053;53.358;6.382;2022-08-19T04:18:10;101301.28;;;16.69;100.00
17855;BME280;9053;53.358;6.382;2022-08-19T04:20:44;101305.69;;;16.68;100.00
17855;BME280;9053;53.358;6.382;2022-08-19T04:23:15;101297.72;;;16.66;100.00
17855;BME280;9053;53.358;6.382;2022-08-19T04:25:47;101291.50;;;16.66;100.00
17855;BME280;9053;53.358;6.382;2022-08-19T04:28:17;101295.91;;;16.65;100.00
17855;BME280;9053;53.358;6.382;2022-08-19T04:30:49;101303.91;;;16.67;100.00
17855;BME280;9053;53.358;6.382;2022-08-19T04:33:20;101300.38;;;16.66;100.00
17855;BME280;9053;53.358;6.382;2022-08-19T04:35:54;101302.13;;;16.67;100.00
17855;BME280;9053;53.358;6.382;2022-08-19T04:38:24;101303.91;;;16.67;100.00
17855;BME280;9053;53.358;6.382;2022-08-19T04:40:57;101307.47;;;16.69;100.00
17855;BME280;9053;53.358;6.382;2022-08-19T04:43:39;101306.59;;;16.69;100.00
17855;BME280;9053;53.358;6.382;2022-08-19T04:46:15;101303.94;;;16.70;100.00
17855;BME280;9053;53.358;6.382;2022-08-19T04:49:07;101303.13;;;16.74;100.00
17855;BME280;9053;53.358;6.382;2022-08-19T04:51:40;101305.97;;;16.83;100.00
17855;BME280;9053;53.358;6.382;2022-08-19T04:54:13;101301.75;;;16.98;100.00
17855;BME280;9053;53.358;6.382;2022-08-19T04:57:07;101312.66;;;17.16;100.00
17855;BME280;9053;53.358;6.382;2022-08-19T04:59:38;101307.63;;;17.38;100.00
17855;BME280;9053;53.358;6.382;2022-08-19T05:02:09;101311.47;;;17.60;100.00
17855;BME280;9053;53.358;6.382;2022-08-19T05:04:39;101306.38;;;17.77;100.00
17855;BME280;9053;53.358;6.382;2022-08-19T05:07:08;101310.09;;;17.91;100.00
17855;BME280;9053;53.358;6.382;2022-08-19T05:09:38;101307.66;;;18.09;100.00
17855;BME280;9053;53.358;6.382;2022-08-19T05:12:27;101306.13;;;18.37;100.00
17855;BME280;9053;53.358;6.382;2022-08-19T05:14:57;101301.03;;;18.65;100.00
17855;BME280;9053;53.358;6.382;2022-08-19T05:17:28;101292.38;;;18.92;100.00
17855;BME280;9053;53.358;6.382;2022-08-19T05:20:04;101296.09;;;19.19;100.00
17855;BME280;9053;53.358;6.382;2022-08-19T05:22:47;101285.56;;;19.45;100.00
17855;BME280;9053;53.358;6.382;2022-08-19T05:25:20;101281.22;;;19.70;100.00
17855;BME280;9053;53.358;6.382;2022-08-19T05:27:54;101287.53;;;19.86;100.00
17855;BME280;9053;53.358;6.382;2022-08-19T05:30:25;101288.41;;;19.86;100.00
17855;BME280;9053;53.358;6.382;2022-08-19T05:33:12;101295.50;;;19.77;100.00
17855;BME280;9053;53.358;6.382;2022-08-19T05:35:42;101292.72;;;19.63;100.00
17855;BME280;9053;53.358;6.382;2022-08-19T05:38:12;101292.72;;;19.51;100.00
17855;BME280;9053;53.358;6.382;2022-08-19T05:40:42;101290.91;;;19.40;100.00
17855;BME280;9053;53.358;6.382;2022-08-19T05:43:19;101284.66;;;19.38;100.00
17855;BME280;9053;53.358;6.382;2022-08-19T05:45:48;101286.41;;;19.36;100.00
17855;BME280;9053;53.358;6.382;2022-08-19T05:48:18;101285.50;;;19.31;100.00
17855;BME280;9053;53.358;6.382;2022-08-19T05:50:48;101277.44;;;19.25;99.90
17855;BME280;9053;53.358;6.382;2022-08-19T05:53:19;101274.78;;;19.20;99.78
17855;BME280;9053;53.358;6.382;2022-08-19T05:55:49;101273.00;;;19.21;99.61
17855;BME280;9053;53.358;6.382;2022-08-19T05:58:21;101278.38;;;19.35;99.77
17855;BME280;9053;53.358;6.382;2022-08-19T06:00:53;101286.50;;;19.56;100.00
17855;BME280;9053;53.358;6.382;2022-08-19T06:03:23;101281.28;;;19.81;100.00
17855;BME280;9053;53.358;6.382;2022-08-19T06:05:53;101276.91;;;20.09;100.00
17855;BME280;9053;53.358;6.382;2022-08-19T06:08:26;101271.59;;;20.37;100.00
17855;BME280;9053;53.358;6.382;2022-08-19T06:11:12;101267.16;;;20.65;100.00
17855;BME280;9053;53.358;6.382;2022-08-19T06:13:46;101265.34;;;20.90;100.00
17855;BME280;9053;53.358;6.382;2022-08-19T06:16:17;101263.50;;;21.10;100.00
17855;BME280;9053;53.358;6.382;2022-08-19T06:18:50;101268.78;;;21.27;100.00
17855;BME280;9053;53.358;6.382;2022-08-19T06:21:22;101261.66;;;21.40;100.00
17855;BME280;9053;53.358;6.382;2022-08-19T06:23:54;101256.25;;;21.52;100.00
17855;BME280;9053;53.358;6.382;2022-08-19T06:26:25;101257.97;;;21.61;99.78
17855;BME280;9053;53.358;6.382;2022-08-19T06:28:58;101263.25;;;21.73;99.77
17855;BME280;9053;53.358;6.382;2022-08-19T06:31:29;101264.97;;;21.88;99.71
17855;BME280;9053;53.358;6.382;2022-08-19T06:34:01;101268.44;;;21.99;99.33
17855;BME280;9053;53.358;6.382;2022-08-19T06:36:36;101263.91;;;22.09;98.94
17855;BME280;9053;53.358;6.382;2022-08-19T06:39:09;101267.47;;;22.16;98.78
17855;BME280;9053;53.358;6.382;2022-08-19T06:41:42;101265.63;;;22.24;98.43
17855;BME280;9053;53.358;6.382;2022-08-19T06:44:22;101266.44;;;22.32;98.28
17855;BME280;9053;53.358;6.382;2022-08-19T06:46:53;101268.16;;;22.42;97.90
17855;BME280;9053;53.358;6.382;2022-08-19T06:49:23;101265.47;;;22.45;97.71
17855;BME280;9053;53.358;6.382;2022-08-19T06:51:59;101265.44;;;22.47;97.17
17855;BME280;9053;53.358;6.382;2022-08-19T06:54:29;101265.41;;;22.52;97.14
17855;BME280;9053;53.358;6.382;2022-08-19T06:57:20;101266.22;;;22.61;96.85
17855;BME280;9053;53.358;6.382;2022-08-19T06:59:52;101265.19;;;22.75;96.89
17855;BME280;9053;53.358;6.382;2022-08-19T07:02:22;101271.31;;;22.89;96.95
17855;BME280;9053;53.358;6.382;2022-08-19T07:04:53;101263.19;;;23.00;96.91
17855;BME280;9053;53.358;6.382;2022-08-19T07:07:25;101264.91;;;23.07;96.77
17855;BME280;9053;53.358;6.382;2022-08-19T07:09:55;101266.50;;;23.22;96.72
17855;BME280;9053;53.358;6.382;2022-08-19T07:12:30;101252.97;;;23.34;96.54
17855;BME280;9053;53.358;6.382;2022-08-19T07:15:07;101266.22;;;23.46;96.23
17855;BME280;9053;53.358;6.382;2022-08-19T07:17:38;101255.28;;;23.60;96.18
17855;BME280;9053;53.358;6.382;2022-08-19T07:20:11;101264.09;;;23.74;96.06
17855;BME280;9053;53.358;6.382;2022-08-19T07:22:44;101267.44;;;23.89;95.68
17855;BME280;9053;53.358;6.382;2022-08-19T07:25:15;101259.25;;;23.98;95.39
17855;BME280;9053;53.358;6.382;2022-08-19T07:27:58;101259.94;;;24.12;95.22
17855;BME280;9053;53.358;6.382;2022-08-19T07:30:31;101265.06;;;24.28;94.91
17855;BME280;9053;53.358;6.382;2022-08-19T07:33:00;101268.44;;;24.39;94.49
17855;BME280;9053;53.358;6.382;2022-08-19T07:35:31;101267.41;;;24.51;94.23
17855;BME280;9053;53.358;6.382;2022-08-19T07:38:02;101257.31;;;24.64;93.80
17855;BME280;9053;53.358;6.382;2022-08-19T07:40:31;101257.16;;;24.73;93.61
17855;BME280;9053;53.358;6.382;2022-08-19T07:43:01;101257.78;;;24.87;93.29
17855;BME280;9053;53.358;6.382;2022-08-19T07:45:34;101259.34;;;24.99;92.79
17855;BME280;9053;53.358;6.382;2022-08-19T07:48:04;101258.25;;;25.09;92.42
17855;BME280;9053;53.358;6.382;2022-08-19T07:50:34;101266.19;;;25.18;91.90
17855;BME280;9053;53.358;6.382;2022-08-19T07:53:04;101269.53;;;25.30;91.65
17855;BME280;9053;53.358;6.382;2022-08-19T07:55:33;101266.63;;;25.40;91.16
17855;BME280;9053;53.358;6.382;2022-08-19T07:58:10;101269.03;;;25.54;90.77
17855;BME280;9053;53.358;6.382;2022-08-19T08:00:44;101272.38;;;25.65;90.57
17855;BME280;9053;53.358;6.382;2022-08-19T08:03:17;101269.53;;;25.73;90.36
17855;BME280;9053;53.358;6.382;2022-08-19T08:05:47;101276.53;;;25.80;90.03
17855;BME280;9053;53.358;6.382;2022-08-19T08:08:29;101286.31;;;25.84;89.42
17855;BME280;9053;53.358;6.382;2022-08-19T08:11:15;101287.06;;;25.93;89.32
17855;BME280;9053;53.358;6.382;2022-08-19T08:13:47;101288.66;;;26.01;88.86
17855;BME280;9053;53.358;6.382;2022-08-19T08:16:34;101290.25;;;26.10;88.56
17855;BME280;9053;53.358;6.382;2022-08-19T08:19:13;101282.91;;;26.17;88.09
17855;BME280;9053;53.358;6.382;2022-08-19T08:21:52;101290.84;;;26.23;87.74
17855;BME280;9053;53.358;6.382;2022-08-19T08:24:23;101286.28;;;26.26;87.44
17855;BME280;9053;53.358;6.382;2022-08-19T08:26:54;101296.91;;;26.32;87.20
17855;BME280;9053;53.358;6.382;2022-08-19T08:29:25;101293.22;;;26.37;86.73
17855;BME280;9053;53.358;6.382;2022-08-19T08:32:03;101300.25;;;26.42;86.53
17855;BME280;9053;53.358;6.382;2022-08-19T08:34:40;101293.81;;;26.48;86.05
17855;BME280;9053;53.358;6.382;2022-08-19T08:37:15;101299.06;;;26.55;85.86
17855;BME280;9053;53.358;6.382;2022-08-19T08:39:45;101298.84;;;26.65;85.60
17855;BME280;9053;53.358;6.382;2022-08-19T08:42:19;101298.63;;;26.72;85.19
17855;BME280;9053;53.358;6.382;2022-08-19T08:44:58;101310.28;;;26.74;85.00
17855;BME280;9053;53.358;6.382;2022-08-19T08:47:35;101301.25;;;26.75;84.43
17855;BME280;9053;53.358;6.382;2022-08-19T08:50:10;101296.59;;;26.82;84.36
17855;BME280;9053;53.358;6.382;2022-08-19T08:52:45;101294.56;;;26.90;84.15
17855;BME280;9053;53.358;6.382;2022-08-19T08:55:19;101299.72;;;27.00;83.79
17855;BME280;9053;53.358;6.382;2022-08-19T08:57:53;101302.13;;;27.09;83.72
17855;BME280;9053;53.358;6.382;2022-08-19T09:00:26;101302.81;;;27.18;83.40
17855;BME280;9053;53.358;6.382;2022-08-19T09:03:00;101306.22;;;27.25;83.25
17855;BME280;9053;53.358;6.382;2022-08-19T09:05:41;101299.97;;;27.23;82.93
17855;BME280;9053;53.358;6.382;2022-08-19T09:08:26;101303.56;;;27.24;82.61
17855;BME280;9053;53.358;6.382;2022-08-19T09:11:00;101292.84;;;27.21;82.39
17855;BME280;9053;53.358;6.382;2022-08-19T09:13:42;101292.00;;;27.18;82.19
17855;BME280;9053;53.358;6.382;2022-08-19T09:16:17;101291.09;;;27.19;82.17
17855;BME280;9053;53.358;6.382;2022-08-19T09:19:02;101292.03;;;27.17;82.03
17855;BME280;9053;53.358;6.382;2022-08-19T09:21:34;101284.06;;;27.12;81.82
17855;BME280;9053;53.358;6.382;2022-08-19T09:24:06;101293.06;;;27.11;81.56
17855;BME280;9053;53.358;6.382;2022-08-19T09:26:36;101290.47;;;27.08;81.38
17855;BME280;9053;53.358;6.382;2022-08-19T09:29:18;101295.97;;;27.04;81.25
17855;BME280;9053;53.358;6.382;2022-08-19T09:31:48;101305.03;;;27.03;81.17
17855;BME280;9053;53.358;6.382;2022-08-19T09:34:21;101304.03;;;27.07;81.08
17855;BME280;9053;53.358;6.382;2022-08-19T09:36:51;101289.63;;;27.06;80.88
17855;BME280;9053;53.358;6.382;2022-08-19T09:39:24;101295.06;;;27.05;80.69
17855;BME280;9053;53.358;6.382;2022-08-19T09:42:01;101299.66;;;27.01;80.76
17855;BME280;9053;53.358;6.382;2022-08-19T09:44:55;101289.88;;;26.97;80.51
17855;BME280;9053;53.358;6.382;2022-08-19T09:47:26;101297.03;;;26.98;80.77
17855;BME280;9053;53.358;6.382;2022-08-19T09:49:59;101302.41;;;27.00;80.67
17855;BME280;9053;53.358;6.382;2022-08-19T09:52:29;101305.03;;;27.03;80.92
17855;BME280;9053;53.358;6.382;2022-08-19T09:55:03;101304.06;;;27.05;80.97
17855;BME280;9053;53.358;6.382;2022-08-19T09:57:34;101294.09;;;27.07;81.03
17855;BME280;9053;53.358;6.382;2022-08-19T10:00:06;101293.16;;;27.08;80.98
17855;BME280;9053;53.358;6.382;2022-08-19T10:02:37;101302.19;;;27.07;80.87
17855;BME280;9053;53.358;6.382;2022-08-19T10:05:13;101303.97;;;27.08;80.89
17855;BME280;9053;53.358;6.382;2022-08-19T10:07:56;101303.00;;;27.11;81.19
17855;BME280;9053;53.358;6.382;2022-08-19T10:10:38;101292.91;;;27.17;81.46
17855;BME280;9053;53.358;6.382;2022-08-19T10:13:14;101281.16;;;27.22;81.49
17855;BME280;9053;53.358;6.382;2022-08-19T10:15:44;101286.59;;;27.18;81.48
17855;BME280;9053;53.358;6.382;2022-08-19T10:18:17;101284.09;;;27.11;81.26
17855;BME280;9053;53.358;6.382;2022-08-19T10:20:50;101290.47;;;27.08;80.96
17855;BME280;9053;53.358;6.382;2022-08-19T10:23:21;101282.47;;;27.05;81.06
17855;BME280;9053;53.358;6.382;2022-08-19T10:25:51;101290.56;;;27.05;81.17
17855;BME280;9053;53.358;6.382;2022-08-19T10:28:20;101286.91;;;27.06;81.07
17855;BME280;9053;53.358;6.382;2022-08-19T10:30:50;101289.59;;;27.08;81.06
17855;BME280;9053;53.358;6.382;2022-08-19T10:33:20;101287.66;;;27.11;81.06
17855;BME280;9053;53.358;6.382;2022-08-19T10:36:13;101284.00;;;27.14;81.23
17855;BME280;9053;53.358;6.382;2022-08-19T10:38:48;101290.31;;;27.14;81.15
17855;BME280;9053;53.358;6.382;2022-08-19T10:41:24;101292.09;;;27.14;81.37
17855;BME280;9053;53.358;6.382;2022-08-19T10:43:57;101289.38;;;27.15;81.22
17855;BME280;9053;53.358;6.382;2022-08-19T10:46:31;101287.53;;;27.17;81.03
17855;BME280;9053;53.358;6.382;2022-08-19T10:49:04;101282.06;;;27.21;80.80
17855;BME280;9053;53.358;6.382;2022-08-19T10:51:37;101282.81;;;27.26;80.64
17855;BME280;9053;53.358;6.382;2022-08-19T10:54:20;101277.28;;;27.30;80.53
17855;BME280;9053;53.358;6.382;2022-08-19T10:56:57;101272.66;;;27.34;80.48
17855;BME280;9053;53.358;6.382;2022-08-19T10:59:27;101274.38;;;27.36;80.30
17855;BME280;9053;53.358;6.382;2022-08-19T11:02:04;101279.72;;;27.39;80.26
17855;BME280;9053;53.358;6.382;2022-08-19T11:04:36;101273.38;;;27.40;80.23
17855;BME280;9053;53.358;6.382;2022-08-19T11:07:09;101272.41;;;27.43;79.98
17855;BME280;9053;53.358;6.382;2022-08-19T11:09:41;101269.66;;;27.45;79.71
17855;BME280;9053;53.358;6.382;2022-08-19T11:12:13;101274.91;;;27.49;79.75
17855;BME280;9053;53.358;6.382;2022-08-19T11:14:43;101273.16;;;27.48;79.80
17855;BME280;9053;53.358;6.382;2022-08-19T11:17:16;101275.84;;;27.48;79.67
17855;BME280;9053;53.358;6.382;2022-08-19T11:19:46;101273.19;;;27.47;79.54
17855;BME280;9053;53.358;6.382;2022-08-19T11:22:18;101273.03;;;27.53;79.57
17855;BME280;9053;53.358;6.382;2022-08-19T11:24:48;101274.66;;;27.58;79.72
17855;BME280;9053;53.358;6.382;2022-08-19T11:27:18;101269.13;;;27.63;79.53
17855;BME280;9053;53.358;6.382;2022-08-19T11:29:48;101266.31;;;27.66;79.47
17855;BME280;9053;53.358;6.382;2022-08-19T11:32:19;101265.41;;;27.67;79.35
17855;BME280;9053;53.358;6.382;2022-08-19T11:34:49;101264.59;;;27.63;78.87
17855;BME280;9053;53.358;6.382;2022-08-19T11:37:22;101259.28;;;27.60;78.82
17855;BME280;9053;53.358;6.382;2022-08-19T11:39:51;101253.88;;;27.60;78.64
17855;BME280;9053;53.358;6.382;2022-08-19T11:42:21;101254.72;;;27.62;78.64
17855;BME280;9053;53.358;6.382;2022-08-19T11:45:04;101249.31;;;27.62;78.63
17855;BME280;9053;53.358;6.382;2022-08-19T11:47:34;101265.63;;;27.59;78.53
17855;BME280;9053;53.358;6.382;2022-08-19T11:50:05;101266.75;;;27.52;78.26
17855;BME280;9053;53.358;6.382;2022-08-19T11:52:39;101262.31;;;27.50;78.18
17855;BME280;9053;53.358;6.382;2022-08-19T11:55:10;101269.59;;;27.46;78.23
17855;BME280;9053;53.358;6.382;2022-08-19T11:57:40;101260.75;;;27.41;78.12
17855;BME280;9053;53.358;6.382;2022-08-19T12:00:11;101259.03;;;27.38;78.27
17855;BME280;9053;53.358;6.382;2022-08-19T12:02:41;101260.00;;;27.36;78.50
17855;BME280;9053;53.358;6.382;2022-08-19T12:05:11;101269.16;;;27.32;78.44
17855;BME280;9053;53.358;6.382;2022-08-19T12:07:44;101256.66;;;27.28;78.76
17855;BME280;9053;53.358;6.382;2022-08-19T12:10:13;101263.00;;;27.27;78.96
17855;BME280;9053;53.358;6.382;2022-08-19T12:12:45;101259.25;;;27.31;79.16
17855;BME280;9053;53.358;6.382;2022-08-19T12:15:26;101261.78;;;27.37;79.53
17855;BME280;9053;53.358;6.382;2022-08-19T12:18:03;101267.84;;;27.45;79.64
17855;BME280;9053;53.358;6.382;2022-08-19T12:20:34;101262.34;;;27.48;79.57
17855;BME280;9053;53.358;6.382;2022-08-19T12:23:08;101271.41;;;27.47;79.66
17855;BME280;9053;53.358;6.382;2022-08-19T12:25:44;101268.00;;;27.39;79.44
17855;BME280;9053;53.358;6.382;2022-08-19T12:28:15;101271.03;;;27.28;79.44
17855;BME280;9053;53.358;6.382;2022-08-19T12:30:45;101284.06;;;27.12;79.65
17855;BME280;9053;53.358;6.382;2022-08-19T12:33:14;101288.91;;;27.00;80.19
17855;BME280;9053;53.358;6.382;2022-08-19T12:35:45;101290.13;;;26.88;80.67
17855;BME280;9053;53.358;6.382;2022-08-19T12:38:18;101294.19;;;26.71;81.45
17855;BME280;9053;53.358;6.382;2022-08-19T12:40:51;101289.22;;;26.53;82.24
17855;BME280;9053;53.358;6.382;2022-08-19T12:43:26;101294.19;;;26.32;83.43
17855;BME280;9053;53.358;6.382;2022-08-19T12:45:56;101300.84;;;26.18;84.44
17855;BME280;9053;53.358;6.382;2022-08-19T12:48:26;101300.25;;;26.05;85.75
17855;BME280;9053;53.358;6.382;2022-08-19T12:51:01;101292.44;;;25.93;86.91
17855;BME280;9053;53.358;6.382;2022-08-19T12:53:37;101295.31;;;25.85;88.15
17855;BME280;9053;53.358;6.382;2022-08-19T12:56:08;101296.31;;;25.79;89.24
17855;BME280;9053;53.358;6.382;2022-08-19T12:58:39;101295.59;;;25.71;90.18
17855;BME280;9053;53.358;6.382;2022-08-19T13:01:17;101293.88;;;25.67;91.11
17855;BME280;9053;53.358;6.382;2022-08-19T13:03:49;101281.41;;;25.63;92.10
17855;BME280;9053;53.358;6.382;2022-08-19T13:06:19;101289.59;;;25.58;92.69
17855;BME280;9053;53.358;6.382;2022-08-19T13:08:52;101283.38;;;25.55;93.31
17855;BME280;9053;53.358;6.382;2022-08-19T13:11:25;101287.91;;;25.53;93.94
17855;BME280;9053;53.358;6.382;2022-08-19T13:13:59;101290.72;;;25.46;94.58
17855;BME280;9053;53.358;6.382;2022-08-19T13:16:29;101285.41;;;25.43;95.28
17855;BME280;9053;53.358;6.382;2022-08-19T13:18:59;101284.50;;;25.44;95.57
17855;BME280;9053;53.358;6.382;2022-08-19T13:21:30;101287.09;;;25.47;96.32
17855;BME280;9053;53.358;6.382;2022-08-19T13:24:04;101291.59;;;25.47;96.83
17855;BME280;9053;53.358;6.382;2022-08-19T13:26:34;101294.38;;;25.44;97.36
17855;BME280;9053;53.358;6.382;2022-08-19T13:29:04;101292.66;;;25.40;97.77